createdAt,value
2022-07-28T00:00:02.861Z,57.26
2022-07-28T00:02:29.550Z,57.98
2022-07-28T00:04:56.208Z,58.10
2022-07-28T00:07:22.862Z,58.77
2022-07-28T00:09:49.794Z,58.99
2022-07-28T00:12:16.740Z,59.62
2022-07-28T00:14:43.388Z,59.72
2022-07-28T00:17:10.117Z,60.08
2022-07-28T00:19:36.844Z,59.98
2022-07-28T00:22:04.058Z,60.29
2022-07-28T00:24:31.858Z,60.60
2022-07-28T00:26:58.647Z,60.57
2022-07-28T00:29:25.257Z,60.14
2022-07-28T00:32:11.843Z,60.36
2022-07-28T00:34:38.616Z,60.55
2022-07-28T00:37:08.623Z,60.50
2022-07-28T00:39:40.118Z,60.91
2022-07-28T00:42:06.866Z,60.76
2022-07-28T00:44:33.467Z,61.00
2022-07-28T00:47:00.122Z,61.14
2022-07-28T00:49:27.122Z,60.93
2022-07-28T00:51:54.174Z,60.74
2022-07-28T00:54:20.791Z,61.11
2022-07-28T00:56:47.371Z,61.32
2022-07-28T00:59:13.923Z,61.14
2022-07-28T01:01:40.627Z,60.92
2022-07-28T01:04:07.459Z,60.98
2022-07-28T01:07:10.626Z,61.01
2022-07-28T01:09:52.986Z,61.00
2022-07-28T01:12:45.789Z,61.03
2022-07-28T01:15:25.406Z,61.73
2022-07-28T01:18:10.615Z,62.26
2022-07-28T01:20:57.813Z,62.19
2022-07-28T01:23:33.358Z,62.17
2022-07-28T01:26:31.006Z,62.16
2022-07-28T01:29:20.349Z,62.37
2022-07-28T01:32:20.818Z,62.08
2022-07-28T01:34:55.865Z,62.30
2022-07-28T01:37:29.133Z,62.26
2022-07-28T01:39:59.065Z,62.45
2022-07-28T01:42:32.304Z,62.24
2022-07-28T01:45:01.739Z,62.76
2022-07-28T01:47:32.277Z,62.33
2022-07-28T01:50:03.782Z,62.80
2022-07-28T01:52:31.870Z,63.29
2022-07-28T01:55:00.630Z,63.59
2022-07-28T01:57:30.733Z,63.70
2022-07-28T01:59:58.898Z,63.74
2022-07-28T02:02:27.860Z,63.55
2022-07-28T02:04:57.300Z,63.42
2022-07-28T02:07:26.325Z,64.70
2022-07-28T02:09:54.817Z,65.42
2022-07-28T02:12:23.075Z,65.84
2022-07-28T02:14:51.710Z,66.20
2022-07-28T02:17:21.649Z,66.72
2022-07-28T02:19:49.133Z,66.31
2022-07-28T02:22:17.085Z,66.31
2022-07-28T02:24:45.984Z,66.73
2022-07-28T02:27:36.298Z,67.07
2022-07-28T02:30:10.821Z,67.67
2022-07-28T02:32:50.304Z,67.95
2022-07-28T02:35:44.795Z,68.35
2022-07-28T02:38:20.931Z,68.64
2022-07-28T02:40:50.814Z,68.74
2022-07-28T02:43:24.353Z,69.03
2022-07-28T02:45:55.342Z,68.95
2022-07-28T02:48:27.660Z,68.79
2022-07-28T02:50:57.462Z,68.29
2022-07-28T02:53:25.180Z,68.17
2022-07-28T02:55:52.919Z,68.93
2022-07-28T02:58:23.920Z,70.40
2022-07-28T03:00:52.634Z,70.63
2022-07-28T03:03:20.147Z,71.19
2022-07-28T03:05:47.033Z,71.19
2022-07-28T03:08:15.040Z,70.94
2022-07-28T03:10:41.978Z,70.61
2022-07-28T03:13:08.793Z,69.88
2022-07-28T03:15:37.033Z,69.64
2022-07-28T03:18:05.228Z,69.95
2022-07-28T03:20:32.816Z,69.07
2022-07-28T03:22:59.891Z,69.00
2022-07-28T03:25:48.170Z,68.27
2022-07-28T03:28:19.650Z,68.61
2022-07-28T03:30:54.388Z,68.44
2022-07-28T03:33:21.228Z,69.21
2022-07-28T03:35:52.122Z,68.97
2022-07-28T03:38:25.933Z,69.28
2022-07-28T03:40:55.748Z,69.87
2022-07-28T03:43:25.202Z,69.83
2022-07-28T03:45:52.006Z,69.91
2022-07-28T03:48:18.640Z,70.47
2022-07-28T03:50:45.257Z,70.59
2022-07-28T03:53:21.826Z,70.65
2022-07-28T03:55:51.116Z,71.24
2022-07-28T03:58:26.313Z,70.74
2022-07-28T04:00:56.750Z,70.18
2022-07-28T04:03:36.409Z,70.19
2022-07-28T04:06:10.731Z,70.45
2022-07-28T04:08:37.326Z,70.29
2022-07-28T04:11:04.103Z,70.48
2022-07-28T04:13:32.251Z,70.50
2022-07-28T04:15:59.997Z,70.94
2022-07-28T04:18:26.685Z,71.84
2022-07-28T04:20:53.297Z,72.23
2022-07-28T04:23:21.022Z,71.93
2022-07-28T04:25:48.166Z,71.58
2022-07-28T04:28:15.746Z,70.80
2022-07-28T04:30:43.972Z,70.78
2022-07-28T04:33:11.459Z,71.53
2022-07-28T04:35:38.049Z,72.43
2022-07-28T04:38:04.807Z,72.10
2022-07-28T04:40:31.544Z,72.61
2022-07-28T04:42:58.161Z,73.01
2022-07-28T04:45:24.883Z,72.99
2022-07-28T04:47:51.954Z,72.49
2022-07-28T04:50:21.365Z,73.05
2022-07-28T04:52:49.878Z,73.26
2022-07-28T04:55:17.478Z,73.52
2022-07-28T04:57:44.812Z,73.48
2022-07-28T05:00:13.637Z,74.58
2022-07-28T05:02:45.268Z,74.82
2022-07-28T05:05:12.717Z,75.12
2022-07-28T05:07:39.856Z,75.29
2022-07-28T05:10:08.950Z,75.22
2022-07-28T05:12:36.018Z,75.21
2022-07-28T05:15:02.743Z,75.18
2022-07-28T05:17:29.322Z,75.19
2022-07-28T05:19:55.849Z,74.78
2022-07-28T05:22:22.450Z,74.33
2022-07-28T05:24:49.048Z,73.20
2022-07-28T05:27:15.690Z,71.86
2022-07-28T05:29:47.111Z,71.52
2022-07-28T05:32:17.051Z,71.38
2022-07-28T05:34:45.412Z,71.54
2022-07-28T05:37:12.256Z,71.58
2022-07-28T05:39:38.985Z,70.46
2022-07-28T05:42:05.893Z,70.76
2022-07-28T05:44:37.640Z,70.32
2022-07-28T05:47:05.584Z,70.16
2022-07-28T05:49:32.304Z,69.82
2022-07-28T05:51:58.874Z,70.35
2022-07-28T05:54:25.549Z,71.03
2022-07-28T05:56:52.691Z,71.53
2022-07-28T05:59:19.289Z,71.33
2022-07-28T06:01:46.120Z,71.82
2022-07-28T06:04:28.917Z,72.79
2022-07-28T06:06:56.007Z,73.85
2022-07-28T06:09:22.695Z,73.30
2022-07-28T06:11:50.647Z,72.11
2022-07-28T06:14:18.196Z,69.83
2022-07-28T06:16:45.273Z,68.40
2022-07-28T06:19:12.212Z,67.55
2022-07-28T06:21:38.825Z,66.78
2022-07-28T06:24:08.252Z,66.81
2022-07-28T06:26:38.592Z,65.94
2022-07-28T06:29:08.778Z,65.71
2022-07-28T06:31:35.919Z,65.95
2022-07-28T06:34:02.863Z,65.28
2022-07-28T06:36:29.513Z,63.90
2022-07-28T06:38:56.097Z,64.36
2022-07-28T06:41:22.722Z,63.99
2022-07-28T06:43:49.482Z,63.07
2022-07-28T06:46:19.356Z,62.64
2022-07-28T06:48:46.163Z,60.63
2022-07-28T06:51:13.058Z,61.02
2022-07-28T06:53:39.739Z,61.12
2022-07-28T06:56:07.475Z,59.51
2022-07-28T06:58:34.263Z,58.65
2022-07-28T07:01:02.537Z,58.30
2022-07-28T07:03:29.330Z,57.59
2022-07-28T07:05:55.871Z,56.09
2022-07-28T07:08:22.501Z,55.41
2022-07-28T07:10:49.173Z,55.27
2022-07-28T07:13:15.842Z,54.05
2022-07-28T07:15:42.413Z,53.73
2022-07-28T07:18:08.951Z,53.04
2022-07-28T07:20:35.527Z,53.75
2022-07-28T07:23:02.080Z,52.77
2022-07-28T07:25:28.751Z,53.04
2022-07-28T07:27:55.389Z,53.35
2022-07-28T07:30:22.191Z,52.37
2022-07-28T07:32:48.753Z,50.96
2022-07-28T07:35:15.604Z,50.59
2022-07-28T07:37:42.203Z,49.66
2022-07-28T07:40:09.619Z,49.26
2022-07-28T07:42:36.530Z,49.57
2022-07-28T07:45:03.834Z,49.51
2022-07-28T07:47:31.159Z,47.86
2022-07-28T07:49:57.749Z,47.92
2022-07-28T07:52:24.370Z,47.99
2022-07-28T07:54:50.950Z,46.60
2022-07-28T07:57:17.588Z,47.06
2022-07-28T07:59:44.178Z,47.03
2022-07-28T08:02:10.848Z,46.22
2022-07-28T08:04:38.425Z,46.32
2022-07-28T08:07:06.284Z,45.76
2022-07-28T08:09:34.316Z,45.85
2022-07-28T08:12:01.230Z,45.18
2022-07-28T08:14:28.186Z,43.74
2022-07-28T08:16:56.817Z,43.80
2022-07-28T08:19:23.815Z,44.52
2022-07-28T08:22:01.132Z,42.70
2022-07-28T08:24:33.389Z,42.91
2022-07-28T08:27:04.589Z,41.74
2022-07-28T08:29:31.971Z,41.26
2022-07-28T08:31:58.993Z,40.75
2022-07-28T08:34:31.043Z,40.79
2022-07-28T08:37:04.025Z,39.52
2022-07-28T08:39:35.102Z,39.94
2022-07-28T08:42:17.913Z,40.48
2022-07-28T08:44:54.875Z,38.11
2022-07-28T08:47:22.406Z,38.18
2022-07-28T08:49:51.220Z,39.49
2022-07-28T08:52:21.556Z,39.97
2022-07-28T08:54:50.827Z,39.36
2022-07-28T08:57:25.482Z,39.14
2022-07-28T08:59:52.651Z,38.73
2022-07-28T09:02:20.887Z,38.15
2022-07-28T09:04:48.694Z,37.34
2022-07-28T09:07:16.888Z,37.86
2022-07-28T09:09:43.814Z,37.71
2022-07-28T09:12:10.767Z,38.34
2022-07-28T09:14:37.489Z,39.15
2022-07-28T09:17:05.487Z,40.27
2022-07-28T09:19:34.132Z,39.45
2022-07-28T09:22:07.455Z,38.09
2022-07-28T09:24:40.632Z,36.05
2022-07-28T09:27:12.856Z,34.95
2022-07-28T09:29:44.920Z,34.81
2022-07-28T09:32:18.787Z,34.70
2022-07-28T09:34:48.119Z,33.25
2022-07-28T09:37:27.389Z,32.29
2022-07-28T09:39:59.772Z,34.12
2022-07-28T09:42:44.598Z,31.26
2022-07-28T09:45:27.049Z,29.77
2022-07-28T09:48:14.347Z,29.74
2022-07-28T09:50:42.423Z,32.24
2022-07-28T09:53:27.379Z,30.88
2022-07-28T09:56:00.273Z,29.76
2022-07-28T09:58:28.042Z,29.67
2022-07-28T10:01:11.621Z,28.96
2022-07-28T10:03:41.472Z,28.65
2022-07-28T10:06:13.565Z,27.83
2022-07-28T10:08:43.559Z,26.20
2022-07-28T10:11:11.774Z,26.89
2022-07-28T10:14:03.514Z,25.64
2022-07-28T10:16:31.447Z,26.12
2022-07-28T10:19:01.111Z,26.55
2022-07-28T10:21:30.953Z,26.44
2022-07-28T10:24:04.821Z,26.88
2022-07-28T10:26:33.720Z,28.13
2022-07-28T10:29:05.473Z,28.18
2022-07-28T10:31:49.663Z,26.06
2022-07-28T10:34:33.041Z,26.67
2022-07-28T10:37:03.501Z,27.00
2022-07-28T10:39:39.763Z,28.02
2022-07-28T10:42:10.591Z,28.24
2022-07-28T10:44:39.038Z,28.37
2022-07-28T10:47:18.311Z,26.07
2022-07-28T10:49:48.883Z,25.52
2022-07-28T10:52:37.719Z,24.61
2022-07-28T10:55:20.483Z,25.38
2022-07-28T10:58:11.358Z,23.01
2022-07-28T11:00:56.149Z,23.93
2022-07-28T11:03:47.082Z,23.71
2022-07-28T11:06:26.188Z,21.76
2022-07-28T11:08:54.295Z,22.48
2022-07-28T11:11:57.931Z,24.90
2022-07-28T11:14:26.039Z,25.96
2022-07-28T11:17:24.381Z,23.86
2022-07-28T11:20:26.106Z,23.55
2022-07-28T11:22:46.039Z,24.01
2022-07-28T11:25:20.511Z,25.14
2022-07-28T11:27:51.943Z,25.46
2022-07-28T11:30:21.967Z,26.25
2022-07-28T11:32:53.282Z,25.11
2022-07-28T11:35:24.525Z,24.74
2022-07-28T11:38:03.504Z,23.89
2022-07-28T11:40:32.688Z,23.39
2022-07-28T11:43:22.035Z,23.66
2022-07-28T11:45:55.931Z,22.50
2022-07-28T11:48:23.590Z,21.94
2022-07-28T11:51:05.514Z,20.61
2022-07-28T11:53:50.189Z,20.04
2022-07-28T11:56:24.028Z,19.92
2022-07-28T11:59:02.320Z,21.35
2022-07-28T12:01:32.345Z,21.66
2022-07-28T12:04:13.358Z,22.06
2022-07-28T12:06:42.967Z,22.00
2022-07-28T12:09:13.560Z,22.90
2022-07-28T12:11:42.478Z,22.37
2022-07-28T12:14:11.945Z,22.16
2022-07-28T12:16:40.726Z,19.97
2022-07-28T12:19:10.084Z,21.56
2022-07-28T12:21:46.159Z,23.08
2022-07-28T12:24:44.651Z,22.73
2022-07-28T12:27:13.653Z,21.92
2022-07-28T12:29:42.386Z,21.57
2022-07-28T12:32:10.443Z,21.91
2022-07-28T12:34:40.777Z,21.51
2022-07-28T12:37:12.241Z,22.41
2022-07-28T12:39:42.100Z,21.18
2022-07-28T12:42:11.665Z,21.52
2022-07-28T12:44:42.921Z,22.07
2022-07-28T12:47:12.381Z,21.91
2022-07-28T12:49:40.923Z,20.30
2022-07-28T12:52:23.541Z,20.05
2022-07-28T12:54:55.559Z,20.85
2022-07-28T12:57:52.817Z,21.00
2022-07-28T13:00:28.218Z,21.04
2022-07-28T13:02:57.099Z,20.63
2022-07-28T13:06:00.475Z,20.14
2022-07-28T13:08:27.722Z,21.05
2022-07-28T13:11:01.892Z,22.49
2022-07-28T13:13:31.202Z,22.60
2022-07-28T13:16:17.807Z,21.51
2022-07-28T13:18:55.378Z,20.34
2022-07-28T13:21:58.496Z,20.52
2022-07-28T13:24:28.510Z,21.19
2022-07-28T13:26:56.012Z,20.97
2022-07-28T13:29:22.937Z,21.78
2022-07-28T13:31:49.900Z,22.35
2022-07-28T13:34:16.886Z,22.36
2022-07-28T13:36:43.957Z,21.50
2022-07-28T13:39:10.914Z,21.58
2022-07-28T13:41:56.152Z,22.50
2022-07-28T13:44:24.944Z,23.76
2022-07-28T13:46:51.678Z,24.53
2022-07-28T13:49:21.475Z,25.65
2022-07-28T13:51:51.063Z,26.52
2022-07-28T13:54:19.657Z,25.37
2022-07-28T13:57:07.004Z,24.11
2022-07-28T13:59:37.043Z,23.39
2022-07-28T14:02:04.670Z,23.53
2022-07-28T14:04:31.238Z,22.39
2022-07-28T14:06:58.668Z,21.55
2022-07-28T14:09:25.294Z,22.36
2022-07-28T14:11:53.713Z,20.98
2022-07-28T14:14:23.835Z,24.49
2022-07-28T14:16:54.580Z,24.85
2022-07-28T14:19:23.541Z,24.23
2022-07-28T14:22:10.533Z,23.08
2022-07-28T14:24:41.078Z,21.67
2022-07-28T14:27:07.952Z,21.12
2022-07-28T14:29:37.517Z,21.09
2022-07-28T14:32:04.604Z,21.06
2022-07-28T14:34:31.727Z,20.17
2022-07-28T14:37:01.338Z,20.39
2022-07-28T14:39:32.249Z,19.81
2022-07-28T14:41:59.064Z,20.12
2022-07-28T14:44:27.873Z,20.15
2022-07-28T14:46:54.716Z,20.23
2022-07-28T14:49:23.808Z,19.84
2022-07-28T14:51:51.184Z,19.99
2022-07-28T14:54:18.272Z,20.55
2022-07-28T14:56:48.410Z,20.27
2022-07-28T14:59:15.488Z,20.83
2022-07-28T15:01:42.255Z,20.80
2022-07-28T15:04:10.176Z,21.20
2022-07-28T15:06:36.743Z,21.24
2022-07-28T15:09:03.978Z,21.02
2022-07-28T15:11:30.765Z,21.22
2022-07-28T15:14:00.595Z,21.77
2022-07-28T15:16:28.561Z,20.59
2022-07-28T15:18:55.501Z,21.63
2022-07-28T15:21:22.416Z,21.62
2022-07-28T15:23:49.285Z,22.05
2022-07-28T15:26:16.160Z,21.73
2022-07-28T15:28:42.971Z,21.38
2022-07-28T15:31:10.064Z,21.02
2022-07-28T15:33:42.491Z,22.80
2022-07-28T15:36:15.984Z,21.87
2022-07-28T15:38:47.450Z,21.86
2022-07-28T15:41:17.863Z,22.42
2022-07-28T15:43:45.128Z,22.10
2022-07-28T15:46:13.727Z,22.09
2022-07-28T15:48:43.204Z,23.20
2022-07-28T15:51:10.543Z,23.25
2022-07-28T15:53:41.941Z,23.93
2022-07-28T15:56:08.896Z,24.14
2022-07-28T15:58:35.778Z,23.60
2022-07-28T16:01:02.680Z,24.04
2022-07-28T16:03:30.410Z,23.54
2022-07-28T16:05:58.870Z,23.40
2022-07-28T16:08:26.785Z,23.21
2022-07-28T16:10:56.744Z,23.56
2022-07-28T16:13:36.720Z,24.37
2022-07-28T16:16:16.622Z,24.50
2022-07-28T16:18:43.683Z,24.55
2022-07-28T16:21:11.199Z,24.86
2022-07-28T16:23:38.076Z,23.82
2022-07-28T16:26:07.743Z,24.00
2022-07-28T16:28:34.817Z,24.43
2022-07-28T16:31:01.538Z,23.99
2022-07-28T16:33:28.209Z,24.23
2022-07-28T16:36:01.343Z,25.08
2022-07-28T16:38:28.063Z,25.10
2022-07-28T16:40:54.668Z,25.30
2022-07-28T16:43:21.304Z,25.21
2022-07-28T16:45:48.016Z,24.89
2022-07-28T16:48:14.636Z,24.59
2022-07-28T16:50:45.872Z,26.40
2022-07-28T16:53:14.014Z,25.72
2022-07-28T16:55:42.304Z,26.10
2022-07-28T16:58:09.221Z,26.23
2022-07-28T17:00:36.116Z,26.27
2022-07-28T17:03:02.738Z,26.65
2022-07-28T17:05:29.376Z,26.11
2022-07-28T17:07:56.006Z,26.43
2022-07-28T17:10:27.235Z,26.76
2022-07-28T17:12:54.180Z,27.49
2022-07-28T17:15:22.715Z,27.55
2022-07-28T17:17:51.182Z,27.80
2022-07-28T17:20:19.123Z,27.76
2022-07-28T17:22:45.755Z,27.75
2022-07-28T17:25:43.611Z,28.06
2022-07-28T17:27:59.193Z,27.79
2022-07-28T17:30:26.056Z,27.94
2022-07-28T17:32:53.256Z,28.06
2022-07-28T17:35:31.595Z,28.72
2022-07-28T17:38:02.994Z,29.18
2022-07-28T17:40:29.756Z,29.71
2022-07-28T17:42:56.419Z,29.80
2022-07-28T17:45:24.134Z,29.56
2022-07-28T17:47:51.002Z,29.44
2022-07-28T17:50:17.743Z,30.27
2022-07-28T17:52:45.267Z,30.15
2022-07-28T17:55:40.681Z,30.42
2022-07-28T17:58:29.427Z,31.32
2022-07-28T18:01:10.042Z,31.42
2022-07-28T18:03:58.757Z,31.55
2022-07-28T18:06:29.817Z,31.46
2022-07-28T18:08:56.546Z,31.99
2022-07-28T18:11:23.156Z,32.71
2022-07-28T18:14:03.657Z,33.05
2022-07-28T18:16:32.550Z,32.68
2022-07-28T18:18:59.262Z,32.88
2022-07-28T18:21:26.750Z,32.92
2022-07-28T18:23:54.898Z,32.64
2022-07-28T18:26:22.186Z,32.97
2022-07-28T18:28:49.111Z,32.92
2022-07-28T18:31:15.804Z,33.22
2022-07-28T18:33:42.503Z,33.85
2022-07-28T18:36:09.176Z,34.34
2022-07-28T18:38:35.852Z,34.98
2022-07-28T18:41:02.472Z,34.68
2022-07-28T18:43:29.056Z,34.91
2022-07-28T18:45:55.748Z,35.52
2022-07-28T18:48:25.440Z,35.57
2022-07-28T18:50:52.505Z,35.10
2022-07-28T18:53:19.568Z,35.44
2022-07-28T18:55:46.261Z,35.71
2022-07-28T18:58:12.827Z,35.86
2022-07-28T19:00:39.726Z,37.28
2022-07-28T19:03:06.634Z,37.46
2022-07-28T19:05:37.000Z,37.17
2022-07-28T19:08:04.971Z,36.89
2022-07-28T19:10:32.545Z,37.12
2022-07-28T19:12:59.644Z,36.97
2022-07-28T19:15:26.686Z,37.21
2022-07-28T19:18:09.739Z,37.17
2022-07-28T19:20:37.364Z,37.16
2022-07-28T19:23:05.549Z,37.60
2022-07-28T19:25:32.551Z,37.53
2022-07-28T19:27:59.206Z,37.53
2022-07-28T19:30:25.793Z,37.88
2022-07-28T19:32:52.336Z,37.63
2022-07-28T19:35:19.239Z,38.23
2022-07-28T19:37:45.936Z,38.40
2022-07-28T19:40:13.365Z,38.68
2022-07-28T19:42:40.252Z,38.34
2022-07-28T19:45:07.637Z,38.99
2022-07-28T19:47:36.762Z,38.96
2022-07-28T19:50:05.238Z,39.10
2022-07-28T19:52:32.202Z,38.96
2022-07-28T19:54:58.736Z,39.75
2022-07-28T19:57:27.288Z,39.91
2022-07-28T19:59:53.900Z,39.77
2022-07-28T20:02:20.782Z,40.12
2022-07-28T20:04:47.580Z,40.67
2022-07-28T20:07:14.446Z,40.83
2022-07-28T20:09:41.827Z,40.88
2022-07-28T20:12:08.912Z,41.27
2022-07-28T20:14:36.909Z,41.27
2022-07-28T20:17:03.905Z,41.83
2022-07-28T20:19:30.779Z,41.52
2022-07-28T20:21:57.730Z,41.68
2022-07-28T20:24:24.763Z,42.29
2022-07-28T20:26:51.713Z,42.19
2022-07-28T20:29:18.499Z,42.48
2022-07-28T20:31:45.369Z,43.03
2022-07-28T20:34:13.115Z,43.01
2022-07-28T20:36:40.225Z,43.18
2022-07-28T20:39:21.377Z,43.03
2022-07-28T20:41:54.493Z,43.28
2022-07-28T20:44:29.696Z,42.98
2022-07-28T20:47:00.255Z,43.50
2022-07-28T20:49:29.624Z,43.07
2022-07-28T20:51:59.749Z,43.24
2022-07-28T20:54:26.448Z,43.83
2022-07-28T20:56:53.843Z,43.80
2022-07-28T20:59:20.578Z,43.95
2022-07-28T21:01:47.280Z,44.46
2022-07-28T21:04:14.358Z,44.12
2022-07-28T21:06:50.819Z,44.21
2022-07-28T21:09:18.292Z,44.64
2022-07-28T21:11:44.940Z,44.35
2022-07-28T21:14:11.596Z,44.66
2022-07-28T21:16:38.340Z,44.75
2022-07-28T21:19:05.783Z,44.64
2022-07-28T21:21:32.476Z,44.54
2022-07-28T21:23:59.123Z,45.07
2022-07-28T21:26:25.854Z,45.02
2022-07-28T21:29:10.920Z,45.01
2022-07-28T21:32:04.740Z,44.99
2022-07-28T21:34:26.879Z,45.63
2022-07-28T21:36:58.118Z,45.99
2022-07-28T21:39:25.397Z,45.94
2022-07-28T21:41:52.021Z,46.05
2022-07-28T21:44:19.046Z,46.33
2022-07-28T21:46:45.862Z,46.83
2022-07-28T21:49:12.789Z,46.90
2022-07-28T21:51:40.162Z,47.50
2022-07-28T21:54:08.612Z,47.81
2022-07-28T21:56:36.459Z,47.70
2022-07-28T21:59:03.878Z,47.84
2022-07-28T22:01:30.819Z,47.97
2022-07-28T22:03:57.636Z,48.01
2022-07-28T22:06:24.464Z,47.96
2022-07-28T22:08:53.987Z,48.41
2022-07-28T22:11:22.152Z,48.58
2022-07-28T22:13:49.192Z,48.74
2022-07-28T22:16:15.990Z,48.94
2022-07-28T22:18:42.723Z,49.33
2022-07-28T22:21:09.526Z,49.59
2022-07-28T22:23:36.409Z,49.84
2022-07-28T22:26:03.524Z,49.92
2022-07-28T22:28:30.575Z,49.78
2022-07-28T22:30:59.038Z,49.86
2022-07-28T22:33:40.048Z,50.18
2022-07-28T22:36:08.816Z,50.16
2022-07-28T22:38:36.025Z,50.34
2022-07-28T22:41:02.707Z,50.57
2022-07-28T22:43:32.091Z,50.58
2022-07-28T22:45:58.948Z,50.66
2022-07-28T22:48:25.691Z,50.50
2022-07-28T22:50:52.441Z,50.60
2022-07-28T22:53:19.083Z,50.98
2022-07-28T22:55:45.812Z,51.60
2022-07-28T22:58:12.506Z,51.77
2022-07-28T23:00:39.354Z,51.62
2022-07-28T23:03:06.183Z,51.86
2022-07-28T23:05:33.884Z,52.04
2022-07-28T23:08:00.628Z,52.09
2022-07-28T23:10:29.767Z,51.78
2022-07-28T23:12:58.724Z,51.84
2022-07-28T23:15:40.778Z,52.06
2022-07-28T23:18:10.700Z,52.52
2022-07-28T23:20:39.195Z,52.56
2022-07-28T23:23:06.944Z,52.64
2022-07-28T23:25:36.448Z,52.81
2022-07-28T23:28:03.572Z,52.87
2022-07-28T23:30:30.249Z,52.88
2022-07-28T23:32:57.043Z,52.94
2022-07-28T23:35:23.763Z,52.64
2022-07-28T23:37:50.608Z,52.86
2022-07-28T23:40:17.379Z,52.85
2022-07-28T23:42:44.120Z,52.97
2022-07-28T23:45:11.091Z,53.11
2022-07-28T23:47:37.817Z,53.59
2022-07-28T23:50:05.486Z,53.75
2022-07-28T23:52:32.570Z,53.79
2022-07-28T23:54:59.269Z,53.60
2022-07-28T23:57:31.068Z,53.73
2022-07-28T23:59:58.834Z,53.90
